Time;durP1;ratioP1;P1;durP2;ratioP2;P2;SDS_P1;SDS_P2;PMS_P1;PMS_P2;Temp;Humidity;BMP_temperature;BMP_pressure;BME280_temperature;BME280_humidity;BME280_pressure;Samples;Min_cycle;Max_cycle;Signal;HPM_P1;HPM_P2
2021/03/27 00:00:36;;;;;;;15.65;7.22;;;10.90;48.30;;;;;;5072390;28;20120;-77
2021/03/27 00:03:40;;;;;;;10.65;5.50;;;11.00;48.50;;;;;;5060319;28;20033;-78
2021/03/27 00:06:14;;;;;;;15.18;6.32;;;11.00;48.20;;;;;;5053310;28;20558;-78
2021/03/27 00:08:44;;;;;;;10.93;6.32;;;11.00;48.30;;;;;;5053517;28;20069;-77
2021/03/27 00:11:24;;;;;;;12.13;5.75;;;11.00;48.20;;;;;;5053918;28;20021;-78
2021/03/27 00:14:04;;;;;;;12.50;5.60;;;11.00;48.40;;;;;;5052245;28;20390;-78
2021/03/27 00:16:36;;;;;;;13.57;6.35;;;11.00;48.20;;;;;;5052712;28;20449;-77
2021/03/27 00:19:25;;;;;;;16.50;6.88;;;11.00;48.30;;;;;;5052206;28;20025;-78
2021/03/27 00:21:55;;;;;;;10.43;5.90;;;11.00;48.50;;;;;;5053242;28;20108;-78
2021/03/27 00:24:24;;;;;;;10.30;5.40;;;11.00;48.30;;;;;;5053723;28;20025;-77
2021/03/27 00:26:59;;;;;;;12.70;6.05;;;11.00;48.40;;;;;;5060035;28;20399;-78
2021/03/27 00:29:45;;;;;;;11.43;6.18;;;11.00;48.60;;;;;;5058021;28;20064;-78
2021/03/27 00:32:17;;;;;;;16.77;9.93;;;10.90;48.70;;;;;;5057994;28;20025;-78
2021/03/27 00:34:48;;;;;;;32.10;16.20;;;10.90;49.30;;;;;;5064522;28;20064;-77
2021/03/27 00:37:17;;;;;;;13.38;7.45;;;10.90;48.90;;;;;;5056837;28;20128;-77
2021/03/27 00:39:52;;;;;;;12.85;6.22;;;10.90;48.90;;;;;;5053149;28;20390;-77
2021/03/27 00:42:32;;;;;;;14.73;6.15;;;10.80;48.90;;;;;;5052897;28;20104;-78
2021/03/27 00:45:04;;;;;;;13.93;6.20;;;10.80;48.80;;;;;;5053120;28;20021;-78
2021/03/27 00:47:36;;;;;;;12.07;5.60;;;10.80;48.70;;;;;;5052078;28;20033;-78
2021/03/27 00:50:29;;;;;;;9.00;5.18;;;10.80;48.60;;;;;;5051563;28;20052;-78
2021/03/27 00:53:00;;;;;;;9.75;5.32;;;10.70;48.70;;;;;;5061881;28;20082;-78
2021/03/27 00:55:34;;;;;;;13.38;6.63;;;10.70;48.60;;;;;;5067990;28;20044;-78
2021/03/27 00:58:10;;;;;;;11.67;5.53;;;10.60;48.90;;;;;;5065228;28;20028;-78
2021/03/27 01:00:44;;;;;;;14.00;5.78;;;10.60;48.90;;;;;;5070410;28;20032;-77
2021/03/27 01:03:20;;;;;;;8.65;5.10;;;10.60;49.00;;;;;;5052623;28;20025;-78
2021/03/27 01:05:48;;;;;;;11.80;5.95;;;10.50;49.00;;;;;;5051357;28;20498;-77
2021/03/27 01:08:17;;;;;;;12.45;6.00;;;10.50;49.30;;;;;;5050966;28;20032;-77
2021/03/27 01:10:50;;;;;;;14.43;6.15;;;10.50;49.40;;;;;;5051389;28;20021;-77
2021/03/27 01:13:23;;;;;;;8.07;5.40;;;10.50;49.60;;;;;;5052683;28;20103;-78
2021/03/27 01:15:56;;;;;;;12.63;6.38;;;10.50;49.60;;;;;;5052589;28;20271;-78
2021/03/27 01:18:35;;;;;;;20.13;6.25;;;10.50;49.80;;;;;;5052535;28;20359;-78
2021/03/27 01:21:23;;;;;;;11.68;6.38;;;10.50;50.10;;;;;;5052277;28;20474;-78
2021/03/27 01:24:04;;;;;;;16.65;9.52;;;10.50;50.00;;;;;;5052459;28;20029;-78
2021/03/27 01:26:40;;;;;;;17.63;8.63;;;10.50;50.00;;;;;;5051814;28;20024;-78
2021/03/27 01:29:08;;;;;;;16.17;8.20;;;10.60;50.10;;;;;;5050831;28;20117;-78
2021/03/27 01:31:39;;;;;;;12.38;6.47;;;10.50;49.90;;;;;;5050889;28;20053;-78
2021/03/27 01:34:46;;;;;;;12.02;6.07;;;10.50;50.00;;;;;;5052062;28;20020;-77
2021/03/27 01:37:23;;;;;;;12.82;6.53;;;10.50;49.80;;;;;;5052724;28;20391;-78
2021/03/27 01:40:15;;;;;;;9.60;5.40;;;10.60;50.10;;;;;;5049914;28;20037;-78
2021/03/27 01:43:08;;;;;;;10.52;5.68;;;10.50;49.90;;;;;;5033098;28;20538;-78
2021/03/27 01:45:58;;;;;;;9.15;5.10;;;10.50;49.90;;;;;;5049979;28;20053;-79
2021/03/27 01:48:45;;;;;;;11.63;6.18;;;10.60;50.00;;;;;;5068113;28;20040;-78
2021/03/27 01:51:24;;;;;;;9.38;5.20;;;10.60;49.90;;;;;;5069701;28;20109;-78
2021/03/27 01:54:03;;;;;;;17.98;8.98;;;10.60;50.10;;;;;;5050486;28;20036;-78
2021/03/27 01:56:46;;;;;;;15.38;8.88;;;10.60;50.40;;;;;;5065170;28;20117;-77
2021/03/27 01:59:23;;;;;;;14.93;7.68;;;10.70;50.20;;;;;;5069838;28;20029;-78
2021/03/27 02:02:03;;;;;;;17.42;7.55;;;10.70;50.10;;;;;;5069353;28;20528;-75
2021/03/27 02:04:40;;;;;;;22.80;6.78;;;10.70;50.70;;;;;;5069991;28;20032;-75
2021/03/27 02:07:45;;;;;;;21.83;9.07;;;10.80;50.00;;;;;;5068303;28;20198;-78
2021/03/27 02:10:41;;;;;;;16.40;9.80;;;10.80;50.30;;;;;;5051328;28;20048;-78
2021/03/27 02:13:17;;;;;;;15.10;8.63;;;10.80;50.30;;;;;;5051891;28;20580;-78
2021/03/27 02:15:42;;;;;;;21.50;9.75;;;10.90;50.20;;;;;;5050622;28;20041;-78
2021/03/27 02:18:22;;;;;;;19.13;8.05;;;10.90;50.20;;;;;;5063375;28;20086;-77
2021/03/27 02:21:01;;;;;;;17.02;8.02;;;10.90;50.40;;;;;;5069416;28;20078;-78
2021/03/27 02:23:27;;;;;;;12.27;7.32;;;10.90;50.20;;;;;;5057100;28;20024;-78
2021/03/27 02:26:23;;;;;;;18.08;7.95;;;10.90;50.00;;;;;;5057525;28;20025;-78
2021/03/27 02:29:27;;;;;;;24.67;10.43;;;10.90;50.20;;;;;;5049863;28;20043;-78
2021/03/27 02:32:06;;;;;;;12.98;7.63;;;11.00;50.80;;;;;;5051199;28;20079;-78
2021/03/27 02:34:51;;;;;;;21.63;10.77;;;11.00;51.10;;;;;;5051760;28;20538;-78
2021/03/27 02:37:20;;;;;;;;;;;11.00;50.40;;;;;;5056550;28;20038;-78
2021/03/27 02:40:05;;;;;;;24.42;13.10;;;11.10;49.80;;;;;;5056659;28;20015;-78
2021/03/27 02:42:44;;;;;;;33.40;13.88;;;11.10;50.20;;;;;;5055375;28;20482;-78
2021/03/27 02:45:33;;;;;;;28.00;14.43;;;11.10;50.50;;;;;;5055383;28;20029;-78
2021/03/27 02:48:19;;;;;;;18.23;10.27;;;11.10;50.90;;;;;;5054660;28;20048;-77
2021/03/27 02:50:45;;;;;;;17.15;9.68;;;11.00;50.80;;;;;;5055029;28;20075;-78
2021/03/27 02:53:18;;;;;;;21.95;9.20;;;11.00;50.70;;;;;;5055769;28;20028;-78
2021/03/27 02:56:15;;;;;;;17.00;8.75;;;11.00;50.90;;;;;;5055160;28;20032;-78
2021/03/27 02:59:00;;;;;;;14.18;7.75;;;11.00;51.10;;;;;;5054959;28;20078;-77
2021/03/27 03:01:45;;;;;;;12.73;7.03;;;10.90;50.90;;;;;;5055139;28;20033;-78
2021/03/27 03:04:30;;;;;;;18.55;8.90;;;10.90;50.60;;;;;;5053763;28;20039;-78
2021/03/27 03:07:08;;;;;;;22.40;9.38;;;10.90;51.10;;;;;;5054922;28;20102;-78
2021/03/27 03:09:49;;;;;;;18.00;9.93;;;10.80;52.30;;;;;;5055911;28;20486;-78
2021/03/27 03:12:24;;;;;;;16.48;8.45;;;10.90;51.80;;;;;;5053466;28;20040;-78
2021/03/27 03:14:58;;;;;;;14.38;7.43;;;10.80;51.50;;;;;;5064372;28;20034;-78
2021/03/27 03:17:44;;;;;;;23.33;7.85;;;10.80;51.30;;;;;;5073727;28;20024;-78
2021/03/27 03:20:48;;;;;;;14.23;8.32;;;10.90;51.20;;;;;;5074638;28;20543;-77
2021/03/27 03:24:01;;;;;;;18.80;9.32;;;10.90;51.30;;;;;;5065965;28;20079;-77
2021/03/27 03:26:34;;;;;;;24.13;9.00;;;10.80;51.10;;;;;;5052207;28;20024;-78
2021/03/27 03:29:27;;;;;;;24.58;8.27;;;10.90;51.20;;;;;;5054098;28;20045;-75
2021/03/27 03:32:01;;;;;;;14.88;7.38;;;10.90;51.10;;;;;;5052957;28;20051;-75
2021/03/27 03:34:39;;;;;;;17.23;8.98;;;10.90;51.00;;;;;;5057353;28;20132;-75
2021/03/27 03:37:11;;;;;;;21.83;7.88;;;10.90;51.10;;;;;;5052874;28;20033;-78
2021/03/27 03:39:46;;;;;;;24.08;8.10;;;10.90;51.10;;;;;;5062219;28;20039;-78
2021/03/27 03:42:33;;;;;;;12.02;6.65;;;10.90;50.90;;;;;;5062170;28;20025;-78
2021/03/27 03:45:34;;;;;;;16.08;7.57;;;10.80;51.00;;;;;;5052881;28;20389;-78
2021/03/27 03:48:03;;;;;;;16.00;6.63;;;10.80;51.00;;;;;;5082112;28;20036;-78
2021/03/27 03:50:54;;;;;;;18.45;7.85;;;10.80;50.80;;;;;;5073821;28;20127;-78
2021/03/27 03:53:38;;;;;;;17.15;8.75;;;10.70;51.00;;;;;;5059902;28;20052;-78
2021/03/27 03:56:13;;;;;;;18.48;8.73;;;10.70;51.10;;;;;;5059451;28;20111;-78
2021/03/27 03:58:49;;;;;;;44.05;24.35;;;10.60;51.10;;;;;;5053921;28;20060;-78
2021/03/27 04:01:36;;;;;;;37.72;20.55;;;10.50;51.20;;;;;;5054278;28;20351;-78
2021/03/27 04:04:13;;;;;;;27.00;14.98;;;10.50;50.90;;;;;;5053999;28;20017;-78
2021/03/27 04:06:41;;;;;;;48.92;11.68;;;10.40;50.80;;;;;;5054862;28;20024;-78
2021/03/27 04:09:18;;;;;;;15.63;7.78;;;10.40;51.10;;;;;;5071311;28;20032;-78
2021/03/27 04:11:46;;;;;;;15.38;8.25;;;10.30;51.10;;;;;;5053698;28;20405;-78
2021/03/27 04:14:40;;;;;;;18.70;8.70;;;10.20;51.10;;;;;;5053844;28;20056;-78
2021/03/27 04:17:11;;;;;;;14.98;7.75;;;10.20;51.50;;;;;;5054295;28;20028;-78
2021/03/27 04:19:48;;;;;;;21.38;8.95;;;10.10;51.40;;;;;;5052209;28;20540;-78
2021/03/27 04:22:20;;;;;;;19.80;9.07;;;10.00;51.50;;;;;;5053396;28;20086;-78
2021/03/27 04:25:13;;;;;;;20.00;8.25;;;10.00;51.70;;;;;;5056566;28;20413;-77
2021/03/27 04:28:17;;;;;;;23.73;9.52;;;9.90;51.80;;;;;;5052689;28;20045;-78
2021/03/27 04:31:06;;;;;;;26.15;10.48;;;9.90;52.10;;;;;;5053205;28;20017;-78
2021/03/27 04:33:56;;;;;;;21.45;10.40;;;9.90;52.90;;;;;;5053449;28;20036;-78
2021/03/27 04:36:52;;;;;;;22.67;10.10;;;9.80;53.80;;;;;;5069376;28;20060;-78
2021/03/27 04:39:33;;;;;;;19.30;9.68;;;9.70;54.80;;;;;;5066718;28;20028;-78
2021/03/27 04:42:13;;;;;;;21.02;10.48;;;9.70;55.10;;;;;;5055167;28;20021;-78
2021/03/27 04:44:52;;;;;;;15.30;8.93;;;9.60;55.10;;;;;;5052797;28;20021;-78
2021/03/27 04:47:33;;;;;;;20.27;9.82;;;9.60;55.70;;;;;;5052583;28;20052;-78
2021/03/27 04:50:12;;;;;;;17.88;8.57;;;9.60;55.20;;;;;;5053741;28;20048;-78
2021/03/27 04:52:49;;;;;;;17.13;9.00;;;9.60;54.80;;;;;;5057449;28;20452;-78
2021/03/27 04:55:38;;;;;;;23.60;10.45;;;9.60;54.60;;;;;;5052319;28;20399;-77
2021/03/27 04:58:19;;;;;;;22.27;8.75;;;9.60;54.80;;;;;;5052411;28;20397;-78
2021/03/27 05:00:54;;;;;;;16.23;8.50;;;9.60;54.80;;;;;;5056045;28;20094;-77
2021/03/27 05:03:47;;;;;;;15.45;8.57;;;9.60;54.50;;;;;;5062686;28;20021;-78
2021/03/27 05:06:18;;;;;;;13.27;6.30;;;9.60;54.30;;;;;;5053596;28;20099;-78
2021/03/27 05:09:15;;;;;;;21.95;7.82;;;9.60;53.80;;;;;;5053345;28;20048;-77
2021/03/27 05:11:58;;;;;;;17.02;8.18;;;9.50;53.90;;;;;;5052624;28;20245;-78
2021/03/27 05:14:26;;;;;;;12.57;7.15;;;9.50;53.90;;;;;;5053396;28;20025;-78
2021/03/27 05:17:19;;;;;;;20.27;8.50;;;9.50;53.70;;;;;;5063624;28;20055;-78
2021/03/27 05:20:05;;;;;;;22.90;7.95;;;9.50;54.00;;;;;;5053262;28;20363;-77
2021/03/27 05:22:39;;;;;;;20.95;9.43;;;9.50;53.90;;;;;;5053165;28;20079;-78
2021/03/27 05:25:49;;;;;;;17.10;7.78;;;9.50;53.90;;;;;;5053207;28;20028;-78
2021/03/27 05:28:27;;;;;;;19.55;7.90;;;9.50;54.20;;;;;;5055081;28;20037;-77
2021/03/27 05:30:59;;;;;;;14.13;7.50;;;9.50;54.20;;;;;;5053013;28;20025;-78
2021/03/27 05:33:43;;;;;;;15.20;7.82;;;9.60;54.20;;;;;;5067382;28;20170;-78
2021/03/27 05:36:24;;;;;;;14.55;8.43;;;9.60;54.80;;;;;;5070821;28;20073;-78
2021/03/27 05:38:53;;;;;;;14.13;7.30;;;9.70;54.90;;;;;;5068309;28;20039;-78
2021/03/27 05:41:36;;;;;;;12.20;6.15;;;9.80;54.70;;;;;;5060993;28;20025;-77
2021/03/27 05:44:39;;;;;;;12.70;7.18;;;9.80;54.80;;;;;;5052804;28;20028;-79
2021/03/27 05:47:35;;;;;;;12.75;7.15;;;9.90;54.80;;;;;;5052786;28;20032;-78
2021/03/27 05:50:52;;;;;;;14.52;7.40;;;10.10;54.80;;;;;;5052772;28;20059;-79
2021/03/27 05:53:37;;;;;;;13.38;7.32;;;10.10;54.60;;;;;;5063878;28;20402;-78
2021/03/27 05:56:14;;;;;;;18.58;9.48;;;10.30;54.50;;;;;;5071762;28;20111;-78
2021/03/27 05:58:54;;;;;;;13.63;7.95;;;10.40;54.40;;;;;;5060946;28;20032;-78
2021/03/27 06:01:34;;;;;;;20.80;8.75;;;10.40;54.40;;;;;;5057027;28;20025;-78
2021/03/27 06:04:28;;;;;;;26.13;9.32;;;10.40;54.20;;;;;;5052831;28;20021;-78
2021/03/27 06:07:03;;;;;;;16.90;9.18;;;10.50;54.10;;;;;;5051486;28;20040;-78
2021/03/27 06:10:02;;;;;;;18.08;9.05;;;10.50;54.10;;;;;;5064557;28;20033;-78
2021/03/27 06:12:43;;;;;;;14.82;7.32;;;10.50;53.90;;;;;;5052764;28;20379;-78
2021/03/27 06:15:52;;;;;;;28.30;10.10;;;10.50;53.60;;;;;;5055486;28;20100;-78
2021/03/27 06:18:55;;;;;;;19.08;9.00;;;10.50;54.10;;;;;;5059478;28;20028;-78
2021/03/27 06:21:54;;;;;;;21.98;9.95;;;10.40;54.10;;;;;;5055233;28;20025;-78
2021/03/27 06:25:04;;;;;;;15.70;8.30;;;10.40;54.40;;;;;;5056129;28;20397;-78
2021/03/27 06:27:47;;;;;;;19.35;9.38;;;10.40;54.50;;;;;;5053285;28;20514;-78
2021/03/27 06:30:38;;;;;;;16.98;9.55;;;10.30;54.70;;;;;;5055341;28;20045;-78
2021/03/27 06:33:42;;;;;;;22.13;9.90;;;10.30;54.70;;;;;;5055761;28;20055;-78
2021/03/27 06:36:45;;;;;;;22.02;9.13;;;10.30;54.70;;;;;;5056377;28;20017;-77
2021/03/27 06:39:25;;;;;;;17.27;8.45;;;10.40;54.70;;;;;;5056627;28;20486;-78
2021/03/27 06:41:53;;;;;;;17.17;9.02;;;10.40;54.60;;;;;;5076353;28;20131;-78
2021/03/27 06:44:49;;;;;;;15.85;8.27;;;10.50;54.60;;;;;;5058273;28;20056;-78
2021/03/27 06:47:58;;;;;;;16.92;9.23;;;10.60;54.40;;;;;;5054765;28;20025;-78
2021/03/27 06:50:58;;;;;;;16.77;8.20;;;10.70;54.10;;;;;;5054649;28;20383;-78
2021/03/27 06:53:57;;;;;;;16.35;8.30;;;10.80;53.80;;;;;;5056708;28;20309;-78
2021/03/27 06:56:52;;;;;;;15.15;8.00;;;10.90;53.60;;;;;;5055937;28;20025;-79
2021/03/27 06:59:56;;;;;;;19.67;8.60;;;11.00;53.50;;;;;;5054757;28;20037;-79
2021/03/27 07:03:13;;;;;;;16.48;8.85;;;11.10;53.30;;;;;;5037077;28;20099;-79
2021/03/27 07:05:57;;;;;;;22.17;9.95;;;11.30;53.00;;;;;;5054160;28;20025;-79
2021/03/27 07:08:44;;;;;;;22.95;8.13;;;11.40;52.80;;;;;;5070993;28;20024;-78
2021/03/27 07:11:28;;;;;;;12.20;7.50;;;11.50;52.80;;;;;;5075988;28;20021;-78
2021/03/27 07:14:38;;;;;;;25.75;9.63;;;11.60;52.60;;;;;;5058917;28;20040;-78
2021/03/27 07:17:25;;;;;;;18.08;8.77;;;11.80;52.10;;;;;;5059244;28;20036;-79
2021/03/27 07:20:33;;;;;;;14.95;8.73;;;11.90;51.70;;;;;;5075651;28;20020;-79
2021/03/27 07:23:17;;;;;;;19.02;9.65;;;12.10;51.60;;;;;;5055297;28;20107;-78
2021/03/27 07:25:50;;;;;;;;;;;12.40;51.20;;;;;;5055404;28;20028;-79
2021/03/27 07:28:35;;;;;;;24.05;9.02;;;12.60;51.60;;;;;;5053997;28;20000;-78
2021/03/27 07:31:42;;;;;;;18.10;8.75;;;12.90;50.50;;;;;;5055736;28;20024;-78
2021/03/27 07:34:16;;;;;;;19.83;9.23;;;13.10;49.80;;;;;;5068501;28;20043;-79
2021/03/27 07:37:08;;;;;;;;;;;13.40;49.00;;;;;;5075345;28;20501;-79
2021/03/27 07:39:37;;;;;;;16.42;8.80;;;13.60;49.80;;;;;;5065266;28;19965;-78
2021/03/27 07:42:44;;;;;;;14.23;8.60;;;13.90;48.80;;;;;;5075009;28;20102;-79
2021/03/27 07:45:28;;;;;;;15.52;8.13;;;14.10;48.50;;;;;;5074403;28;20112;-79
2021/03/27 07:48:21;;;;;;;17.00;8.93;;;14.30;47.90;;;;;;5061921;28;20071;-79
2021/03/27 07:51:08;;;;;;;23.55;8.88;;;14.50;47.70;;;;;;5053435;28;20294;-79
2021/03/27 07:53:58;;;;;;;15.52;7.70;;;14.60;47.50;;;;;;5054891;28;20536;-78
2021/03/27 07:56:44;;;;;;;16.42;7.45;;;14.80;46.90;;;;;;5054932;28;20025;-78
2021/03/27 07:59:34;;;;;;;14.32;7.88;;;14.90;46.80;;;;;;5055648;28;20463;-76
2021/03/27 08:02:22;;;;;;;12.07;7.68;;;15.00;46.50;;;;;;5058800;28;20028;-77
2021/03/27 08:04:51;;;;;;;17.90;7.68;;;15.10;46.20;;;;;;5053338;28;20071;-77
2021/03/27 08:07:23;;;;;;;13.57;6.55;;;15.20;46.00;;;;;;5053341;28;20021;-78
2021/03/27 08:10:14;;;;;;;16.90;7.57;;;15.30;45.60;;;;;;5061260;28;20470;-77
2021/03/27 08:12:52;;;;;;;13.80;7.18;;;15.30;45.30;;;;;;5074634;28;20021;-78
2021/03/27 08:15:35;;;;;;;13.48;7.40;;;15.40;45.20;;;;;;5059175;28;20116;-78
2021/03/27 08:18:33;;;;;;;13.87;7.63;;;15.40;45.10;;;;;;5065694;28;20036;-77
2021/03/27 08:21:24;;;;;;;12.48;7.60;;;15.50;45.00;;;;;;5073210;28;20025;-78
2021/03/27 08:24:22;;;;;;;12.77;6.70;;;15.50;45.10;;;;;;5064800;28;20067;-78
2021/03/27 08:27:25;;;;;;;9.63;6.07;;;15.60;44.70;;;;;;5072687;28;20032;-77
2021/03/27 08:30:18;;;;;;;14.75;7.03;;;15.60;44.90;;;;;;5073335;28;20032;-77
2021/03/27 08:33:15;;;;;;;15.88;8.25;;;15.60;44.60;;;;;;5074073;28;20036;-79
2021/03/27 08:36:11;;;;;;;14.32;7.25;;;15.60;44.80;;;;;;5073098;28;20056;-78
2021/03/27 08:39:03;;;;;;;16.30;6.93;;;15.60;44.70;;;;;;5073562;28;20103;-78
2021/03/27 08:42:06;;;;;;;13.02;6.78;;;15.50;44.80;;;;;;5072175;28;20025;-77
2021/03/27 08:45:09;;;;;;;13.73;6.72;;;15.50;45.00;;;;;;5074022;28;20020;-77
2021/03/27 08:47:49;;;;;;;12.52;7.30;;;15.60;45.40;;;;;;5072586;28;20024;-78
2021/03/27 08:50:44;;;;;;;12.55;6.22;;;15.60;45.30;;;;;;5052371;28;20498;-78
2021/03/27 08:53:19;;;;;;;17.70;7.32;;;15.70;45.50;;;;;;5057111;28;20041;-78
2021/03/27 08:56:15;;;;;;;13.65;7.07;;;15.80;45.50;;;;;;5054931;28;20040;-78
2021/03/27 08:58:59;;;;;;;11.55;6.97;;;16.00;45.50;;;;;;5054003;28;20037;-78
2021/03/27 09:02:10;;;;;;;15.75;7.65;;;16.20;45.40;;;;;;5067031;28;20091;-79
2021/03/27 09:05:05;;;;;;;13.70;7.68;;;16.30;45.20;;;;;;5049387;28;20066;-79
2021/03/27 09:08:21;;;;;;;14.05;7.80;;;16.50;44.60;;;;;;5032892;28;20028;-78
2021/03/27 09:11:01;;;;;;;14.00;7.57;;;16.60;44.60;;;;;;4980984;28;20030;-77
2021/03/27 09:13:44;;;;;;;16.52;9.23;;;16.70;44.40;;;;;;4992163;28;20046;-78
2021/03/27 09:16:57;;;;;;;15.32;8.20;;;16.70;44.20;;;;;;4992001;28;20447;-78
2021/03/27 09:19:35;;;;;;;13.40;7.82;;;16.80;44.10;;;;;;4880719;29;20446;-78
2021/03/27 09:22:19;;;;;;;12.65;8.10;;;16.90;44.00;;;;;;4979823;28;20069;-78
2021/03/27 09:24:59;;;;;;;15.95;8.55;;;17.00;44.00;;;;;;4975695;28;20023;-78
2021/03/27 09:27:57;;;;;;;13.70;7.38;;;17.00;43.80;;;;;;4991735;28;20038;-78
2021/03/27 09:30:35;;;;;;;18.00;8.27;;;17.10;44.00;;;;;;4973750;28;20046;-79
2021/03/27 09:33:09;;;;;;;16.38;7.78;;;17.10;43.60;;;;;;4990869;28;20526;-78
2021/03/27 09:35:40;;;;;;;12.73;7.55;;;17.10;43.40;;;;;;4992133;28;20118;-78
2021/03/27 09:38:27;;;;;;;14.95;7.47;;;17.20;43.80;;;;;;4992171;28;20026;-79
2021/03/27 09:40:58;;;;;;;8.65;6.25;;;17.30;43.60;;;;;;4982416;28;20023;-78
2021/03/27 09:43:33;;;;;;;14.20;6.85;;;17.40;43.50;;;;;;4962525;28;20507;-78
2021/03/27 09:46:08;;;;;;;10.60;6.22;;;17.50;43.80;;;;;;5013614;28;20116;-78
2021/03/27 09:49:07;;;;;;;16.02;6.65;;;17.60;43.10;;;;;;5065515;28;20029;-79
2021/03/27 09:52:02;;;;;;;45.28;12.07;;;17.80;43.10;;;;;;5051444;28;20552;-78
2021/03/27 09:54:33;;;;;;;13.43;6.60;;;18.00;42.90;;;;;;5051621;28;20036;-77
2021/03/27 09:57:13;;;;;;;12.57;6.75;;;18.10;42.50;;;;;;5057211;28;20017;-78
2021/03/27 09:59:43;;;;;;;13.00;6.28;;;18.20;42.10;;;;;;5055577;28;20029;-79
2021/03/27 10:02:29;;;;;;;10.27;6.45;;;18.30;42.10;;;;;;5056693;28;20044;-78
2021/03/27 10:04:57;;;;;;;11.60;6.38;;;18.30;41.70;;;;;;5061770;28;20025;-78
2021/03/27 10:07:48;;;;;;;9.35;6.40;;;18.30;41.50;;;;;;5063990;28;20025;-79
2021/03/27 10:10:20;;;;;;;15.05;6.95;;;18.20;41.70;;;;;;5068352;28;20053;-78
2021/03/27 10:12:58;;;;;;;9.90;6.32;;;18.10;41.40;;;;;;5061791;28;20363;-79
2021/03/27 10:15:51;;;;;;;10.77;6.35;;;18.00;41.60;;;;;;5069186;28;20481;-78
2021/03/27 10:18:59;;;;;;;8.48;6.45;;;17.90;41.60;;;;;;5064337;28;20548;-79
2021/03/27 10:21:36;;;;;;;11.73;6.20;;;17.80;42.00;;;;;;5053031;28;20058;-78
2021/03/27 10:24:16;;;;;;;11.18;6.53;;;17.60;41.90;;;;;;5066785;28;20086;-78
2021/03/27 10:26:44;;;;;;;10.45;5.90;;;17.50;42.10;;;;;;5065089;28;20111;-77
2021/03/27 10:29:10;;;;;;;8.10;5.35;;;17.40;42.50;;;;;;5063670;28;20102;-78
2021/03/27 10:31:47;;;;;;;11.05;5.03;;;17.20;42.70;;;;;;5071340;28;20434;-78
2021/03/27 10:34:30;;;;;;;8.07;3.72;;;17.10;43.00;;;;;;5056578;28;20500;-78
2021/03/27 10:37:03;;;;;;;6.05;2.60;;;16.90;42.90;;;;;;5071994;28;20029;-78
2021/03/27 10:39:53;;;;;;;7.20;2.25;;;16.80;43.00;;;;;;5056960;28;20074;-79
2021/03/27 10:42:29;;;;;;;3.00;2.20;;;16.60;43.20;;;;;;5052889;28;20462;-78
2021/03/27 10:45:16;;;;;;;2.35;1.75;;;16.40;43.30;;;;;;5059954;28;20027;-78
2021/03/27 10:48:04;;;;;;;11.88;2.00;;;16.20;43.60;;;;;;5060527;28;20100;-78
2021/03/27 10:50:49;;;;;;;7.35;1.25;;;16.00;44.20;;;;;;5061095;28;20048;-78
2021/03/27 10:53:46;;;;;;;1.40;1.10;;;15.80;44.20;;;;;;5059529;28;20107;-78
2021/03/27 10:56:40;;;;;;;2.10;1.23;;;15.70;44.40;;;;;;5058687;28;20116;-80
2021/03/27 10:59:39;;;;;;;2.50;1.40;;;15.70;44.50;;;;;;5057078;28;20033;-78
2021/03/27 11:02:31;;;;;;;3.22;1.40;;;15.60;44.60;;;;;;5063349;28;20497;-77
2021/03/27 11:05:45;;;;;;;2.10;1.27;;;15.60;44.40;;;;;;5068772;28;20025;-77
2021/03/27 11:08:52;;;;;;;3.15;1.02;;;15.50;44.60;;;;;;5055834;28;20025;-78
2021/03/27 11:11:33;;;;;;;7.28;1.52;;;15.50;44.50;;;;;;5069131;28;20394;-77
2021/03/27 11:14:35;;;;;;;2.30;1.23;;;15.50;44.60;;;;;;5085082;28;20127;-78
2021/03/27 11:17:26;;;;;;;4.70;1.85;;;15.50;44.60;;;;;;5066532;28;20036;-78
2021/03/27 11:20:22;;;;;;;10.05;2.00;;;15.50;44.50;;;;;;5092587;28;20655;-77
2021/03/27 11:23:25;;;;;;;4.28;1.60;;;15.50;44.40;;;;;;5092702;28;20116;-78
2021/03/27 11:26:15;;;;;;;5.28;2.00;;;15.50;44.60;;;;;;5089900;28;20040;-77
2021/03/27 11:29:28;;;;;;;2.00;1.58;;;15.50;44.80;;;;;;5076049;28;20394;-77
2021/03/27 11:32:07;;;;;;;10.55;3.45;;;15.40;44.80;;;;;;5078298;28;20413;-78
2021/03/27 11:34:51;;;;;;;5.22;1.45;;;15.40;44.90;;;;;;5090310;28;20165;-78
2021/03/27 11:37:26;;;;;;;6.47;1.60;;;15.40;45.10;;;;;;5090165;28;20183;-78
2021/03/27 11:40:14;;;;;;;5.70;1.58;;;15.50;45.00;;;;;;5072486;28;20037;-78
2021/03/27 11:42:57;;;;;;;1.88;1.27;;;15.50;44.50;;;;;;5087234;28;20047;-77
2021/03/27 11:45:26;;;;;;;1.77;1.17;;;15.60;44.40;;;;;;5062817;28;20025;-78
2021/03/27 11:48:16;;;;;;;2.30;0.77;;;15.60;43.80;;;;;;5055445;28;20518;-78
2021/03/27 11:51:00;;;;;;;3.15;0.93;;;15.70;43.80;;;;;;5053945;28;20041;-78
2021/03/27 11:54:03;;;;;;;1.95;0.90;;;15.60;43.60;;;;;;5055368;28;20049;-78
2021/03/27 11:57:04;;;;;;;1.10;0.70;;;15.60;43.40;;;;;;5053833;28;20032;-78
2021/03/27 12:03:09;;;;;;;1.58;0.90;;;15.60;43.20;;;;;;5073502;28;20067;-77
2021/03/27 12:05:56;;;;;;;2.90;1.02;;;15.60;43.20;;;;;;5062019;28;20385;-77
2021/03/27 12:08:37;;;;;;;2.67;1.02;;;15.60;43.20;;;;;;5064405;28;20171;-77
2021/03/27 12:11:28;;;;;;;2.92;0.73;;;15.70;44.00;;;;;;5061811;28;20049;-77
2021/03/27 12:14:03;;;;;;;1.35;0.75;;;15.70;43.00;;;;;;5058073;28;20398;-77
2021/03/27 12:16:49;;;;;;;7.07;1.00;;;15.80;43.10;;;;;;5068025;28;20032;-78
2021/03/27 12:19:33;;;;;;;5.03;1.00;;;15.80;43.00;;;;;;5065787;28;20029;-78
2021/03/27 12:22:17;;;;;;;1.05;0.90;;;15.90;43.00;;;;;;5068457;28;20021;-77
2021/03/27 12:25:06;;;;;;;4.47;1.10;;;16.10;42.80;;;;;;5056659;28;20032;-77
2021/03/27 12:27:45;;;;;;;3.58;0.80;;;16.20;42.50;;;;;;5057286;28;20037;-78
2021/03/27 12:30:42;;;;;;;1.35;0.68;;;16.30;42.30;;;;;;5062123;28;20043;-77
2021/03/27 12:33:44;;;;;;;1.60;0.90;;;16.50;42.30;;;;;;5055257;28;20120;-78
2021/03/27 12:36:37;;;;;;;8.10;1.20;;;16.60;41.90;;;;;;5071057;28;20044;-78
2021/03/27 12:39:23;;;;;;;2.80;0.88;;;16.70;41.50;;;;;;5055228;28;20094;-78
2021/03/27 12:42:11;;;;;;;3.53;0.70;;;16.80;41.20;;;;;;5054513;28;20021;-78
2021/03/27 12:45:04;;;;;;;4.55;1.63;;;16.80;41.10;;;;;;5062247;28;20043;-78
2021/03/27 12:47:35;;;;;;;3.08;0.90;;;16.90;40.70;;;;;;5053400;28;20439;-78
2021/03/27 12:50:36;;;;;;;1.67;1.08;;;16.90;40.40;;;;;;5054225;28;20100;-78
2021/03/27 12:53:21;;;;;;;1.52;0.85;;;16.90;40.60;;;;;;5050879;28;20032;-78
2021/03/27 12:55:56;;;;;;;2.22;0.68;;;16.80;40.10;;;;;;5052879;28;20024;-78
2021/03/27 12:58:44;;;;;;;5.32;1.00;;;16.80;40.20;;;;;;5051878;28;20079;-76
2021/03/27 13:01:31;;;;;;;3.13;0.85;;;16.80;40.50;;;;;;5053127;28;20530;-77
2021/03/27 13:04:25;;;;;;;2.13;0.90;;;16.90;40.40;;;;;;5064470;28;20035;-77
2021/03/27 13:07:16;;;;;;;5.38;1.30;;;16.90;39.90;;;;;;5054158;28;20520;-76
2021/03/27 13:09:42;;;;;;;1.83;0.90;;;16.90;39.30;;;;;;5071219;28;20119;-77
2021/03/27 13:12:18;;;;;;;4.18;0.70;;;16.80;39.20;;;;;;5068990;28;20119;-77
2021/03/27 13:14:55;;;;;;;1.50;0.90;;;16.70;39.20;;;;;;5052380;28;20490;-77
2021/03/27 13:17:34;;;;;;;1.48;0.80;;;16.80;39.60;;;;;;5052702;28;20083;-76
2021/03/27 13:20:18;;;;;;;2.08;0.88;;;16.70;39.40;;;;;;5051780;28;20077;-77
2021/03/27 13:23:06;;;;;;;2.10;0.90;;;16.70;39.50;;;;;;5052956;28;20366;-77
2021/03/27 13:26:00;;;;;;;1.20;0.70;;;16.80;39.70;;;;;;5050967;28;20510;-77
2021/03/27 13:28:38;;;;;;;4.85;1.05;;;16.80;39.50;;;;;;5054426;28;20039;-78
2021/03/27 13:31:35;;;;;;;1.13;0.90;;;16.80;39.80;;;;;;5059588;28;20067;-79
2021/03/27 13:34:17;;;;;;;3.72;1.00;;;16.90;39.80;;;;;;5056259;28;20037;-77
2021/03/27 13:36:56;;;;;;;1.45;0.80;;;16.90;39.10;;;;;;5045330;28;20039;-78
2021/03/27 13:39:34;;;;;;;5.15;0.80;;;16.80;39.00;;;;;;5068330;28;20044;-78
2021/03/27 13:42:11;;;;;;;6.93;1.67;;;16.90;39.40;;;;;;5040879;28;20590;-78
2021/03/27 13:44:48;;;;;;;1.48;0.90;;;16.90;39.20;;;;;;5051718;28;20040;-78
2021/03/27 13:47:30;;;;;;;1.48;0.90;;;16.90;39.40;;;;;;5050676;28;20606;-78
2021/03/27 13:50:05;;;;;;;3.95;0.90;;;16.90;39.30;;;;;;5051783;28;20045;-78
2021/03/27 13:52:52;;;;;;;2.88;1.10;;;17.00;39.30;;;;;;5033148;28;20029;-78
2021/03/27 13:55:38;;;;;;;2.22;0.90;;;17.00;39.10;;;;;;5056015;28;20055;-78
2021/03/27 13:58:21;;;;;;;2.42;0.90;;;17.20;39.50;;;;;;5052824;28;20040;-77
2021/03/27 14:00:58;;;;;;;2.60;0.90;;;17.30;39.20;;;;;;5055608;28;20033;-77
2021/03/27 14:03:51;;;;;;;1.65;0.73;;;17.40;39.00;;;;;;5033229;28;20121;-78
2021/03/27 14:06:34;;;;;;;1.23;0.70;;;17.50;39.00;;;;;;5049597;28;20029;-78
2021/03/27 14:09:26;;;;;;;0.90;0.63;;;17.60;38.70;;;;;;5064421;28;20360;-78
2021/03/27 14:12:25;;;;;;;1.33;0.80;;;17.60;38.70;;;;;;5069577;28;20060;-78
2021/03/27 14:15:03;;;;;;;4.07;1.08;;;17.70;38.20;;;;;;5066544;28;20029;-78